createdAt,value
2022-10-30T00:00:17.811Z,16.20
2022-10-30T00:01:19.841Z,16.10
2022-10-30T00:02:21.389Z,16.20
2022-10-30T00:03:22.984Z,16.10
2022-10-30T00:04:24.780Z,16.20
2022-10-30T00:05:26.786Z,16.20
2022-10-30T00:06:28.220Z,16.20
2022-10-30T00:07:29.699Z,16.30
2022-10-30T00:08:31.076Z,16.20
2022-10-30T00:09:32.682Z,16.10
2022-10-30T00:10:34.804Z,16.10
2022-10-30T00:11:36.302Z,16.10
2022-10-30T00:12:37.843Z,16.10
2022-10-30T00:13:39.723Z,16.20
2022-10-30T00:14:41.162Z,16.20
2022-10-30T00:15:53.459Z,16.20
2022-10-30T00:16:55.080Z,16.20
2022-10-30T00:17:56.807Z,16.20
2022-10-30T00:18:58.406Z,16.20
2022-10-30T00:20:00.106Z,16.20
2022-10-30T00:21:10.008Z,16.30
2022-10-30T00:22:12.100Z,16.30
2022-10-30T00:23:13.573Z,16.30
2022-10-30T00:24:15.999Z,16.40
2022-10-30T00:25:17.569Z,16.30
2022-10-30T00:26:20.973Z,16.30
2022-10-30T00:27:22.632Z,16.30
2022-10-30T00:28:24.232Z,16.20
2022-10-30T00:29:26.703Z,16.20
2022-10-30T00:30:28.668Z,16.20
2022-10-30T00:31:30.308Z,16.30
2022-10-30T00:32:31.701Z,16.30
2022-10-30T00:33:33.236Z,16.20
2022-10-30T00:34:34.887Z,16.10
2022-10-30T00:35:36.603Z,16.10
2022-10-30T00:36:38.203Z,16.00
2022-10-30T00:37:39.784Z,16.00
2022-10-30T00:38:41.574Z,16.10
2022-10-30T00:39:43.016Z,16.00
2022-10-30T00:40:44.442Z,16.00
2022-10-30T00:41:45.820Z,16.00
2022-10-30T00:42:47.262Z,16.10
2022-10-30T00:43:48.769Z,16.10
2022-10-30T00:44:53.451Z,16.00
2022-10-30T00:45:55.967Z,16.00
2022-10-30T00:46:58.832Z,16.00
2022-10-30T00:48:04.436Z,16.10
2022-10-30T00:49:15.243Z,16.10
2022-10-30T00:50:24.714Z,16.10
2022-10-30T00:51:29.318Z,16.10
2022-10-30T00:52:35.823Z,16.00
2022-10-30T00:53:37.629Z,16.00
2022-10-30T00:54:39.051Z,16.00
2022-10-30T00:55:49.773Z,16.00
2022-10-30T00:56:51.944Z,16.00
2022-10-30T00:57:54.631Z,16.00
2022-10-30T00:59:05.635Z,16.00
2022-10-30T01:00:09.287Z,16.00
2022-10-30T01:01:17.575Z,15.90
2022-10-30T01:02:20.620Z,15.90
2022-10-30T01:03:23.092Z,15.90
2022-10-30T01:04:29.102Z,16.00
2022-10-30T01:05:32.960Z,16.00
2022-10-30T01:06:36.850Z,15.90
2022-10-30T01:07:39.592Z,16.00
2022-10-30T01:08:42.013Z,16.00
2022-10-30T01:09:45.521Z,15.90
2022-10-30T01:10:48.294Z,15.90
2022-10-30T01:11:50.117Z,15.90
2022-10-30T01:12:53.303Z,15.90
2022-10-30T01:13:58.692Z,15.90
2022-10-30T01:15:01.033Z,15.90
2022-10-30T01:16:09.592Z,15.90
2022-10-30T01:17:32.667Z,16.00
2022-10-30T01:18:58.714Z,16.00
2022-10-30T01:20:38.964Z,16.00
2022-10-30T01:22:13.132Z,16.10
2022-10-30T01:23:36.397Z,16.10
2022-10-30T01:24:43.791Z,16.00
2022-10-30T01:25:45.169Z,16.00
2022-10-30T01:27:13.619Z,16.00
2022-10-30T01:28:21.160Z,16.00
2022-10-30T01:29:46.455Z,16.00
2022-10-30T01:31:02.515Z,16.00
2022-10-30T01:32:30.156Z,15.90
2022-10-30T01:34:03.814Z,15.90
2022-10-30T01:35:35.776Z,16.00
2022-10-30T01:36:47.511Z,16.00
2022-10-30T01:38:03.931Z,16.00
2022-10-30T01:39:13.446Z,16.00
2022-10-30T01:40:18.276Z,16.00
2022-10-30T01:41:19.867Z,16.00
2022-10-30T01:42:48.806Z,15.90
2022-10-30T01:43:59.205Z,15.90
2022-10-30T01:45:02.328Z,15.90
2022-10-30T01:46:26.923Z,15.90
2022-10-30T01:47:34.625Z,16.00
2022-10-30T01:48:42.175Z,15.90
2022-10-30T01:50:11.388Z,15.80
2022-10-30T01:51:30.768Z,15.80
2022-10-30T01:53:00.110Z,15.90
2022-10-30T01:54:01.636Z,15.80
2022-10-30T01:55:36.485Z,15.70
2022-10-30T01:57:12.744Z,15.70
2022-10-30T01:58:33.361Z,15.70
2022-10-30T01:59:51.872Z,15.70
2022-10-30T02:00:58.824Z,15.70
2022-10-30T02:02:00.399Z,15.80
2022-10-30T02:03:02.200Z,15.90
2022-10-30T02:04:06.606Z,15.80
2022-10-30T02:05:13.122Z,15.80
2022-10-30T02:06:14.627Z,15.80
2022-10-30T02:07:16.278Z,15.80
2022-10-30T02:08:23.338Z,15.70
2022-10-30T02:09:26.063Z,15.80
2022-10-30T02:10:28.308Z,15.80
2022-10-30T02:11:31.839Z,15.80
2022-10-30T02:12:33.646Z,15.80
2022-10-30T02:13:35.159Z,15.80
2022-10-30T02:14:43.801Z,15.80
2022-10-30T02:15:46.812Z,15.80
2022-10-30T02:16:51.590Z,15.80
2022-10-30T02:17:56.091Z,15.80
2022-10-30T02:18:57.881Z,15.80
2022-10-30T02:19:59.305Z,15.80
2022-10-30T02:21:00.745Z,15.80
2022-10-30T02:22:02.451Z,15.80
2022-10-30T02:23:04.769Z,15.80
2022-10-30T02:24:08.345Z,15.80
2022-10-30T02:25:10.065Z,15.80
2022-10-30T02:26:11.821Z,15.80
2022-10-30T02:27:13.237Z,15.80
2022-10-30T02:28:15.261Z,15.80
2022-10-30T02:29:20.668Z,15.80
2022-10-30T02:30:22.479Z,15.80
2022-10-30T02:31:23.877Z,15.70
2022-10-30T02:32:26.029Z,15.70
2022-10-30T02:33:27.494Z,15.70
2022-10-30T02:34:29.184Z,15.70
2022-10-30T02:35:33.231Z,15.70
2022-10-30T02:36:34.712Z,15.70
2022-10-30T02:37:36.249Z,15.70
2022-10-30T02:38:37.660Z,15.70
2022-10-30T02:39:39.125Z,15.70
2022-10-30T02:40:40.665Z,15.70
2022-10-30T02:41:42.420Z,15.70
2022-10-30T02:42:52.179Z,15.70
2022-10-30T02:43:53.658Z,15.70
2022-10-30T02:44:55.136Z,15.80
2022-10-30T02:45:56.635Z,15.80
2022-10-30T02:46:58.076Z,15.70
2022-10-30T02:48:02.656Z,15.70
2022-10-30T02:49:05.228Z,15.70
2022-10-30T02:50:07.786Z,15.70
2022-10-30T02:51:12.585Z,15.70
2022-10-30T02:52:14.597Z,15.70
2022-10-30T02:53:17.133Z,15.70
2022-10-30T02:54:20.581Z,15.80
2022-10-30T02:55:23.346Z,15.80
2022-10-30T02:56:27.606Z,15.80
2022-10-30T02:57:29.342Z,15.80
2022-10-30T02:58:30.939Z,15.80
2022-10-30T02:59:32.391Z,15.80
2022-10-30T03:00:34.680Z,15.70
2022-10-30T03:01:36.349Z,15.70
2022-10-30T03:02:38.169Z,15.70
2022-10-30T03:03:40.277Z,15.80
2022-10-30T03:04:41.776Z,15.90
2022-10-30T03:05:45.888Z,15.90
2022-10-30T03:06:47.553Z,15.90
2022-10-30T03:07:49.051Z,15.80
2022-10-30T03:08:50.778Z,15.80
2022-10-30T03:09:54.335Z,15.70
2022-10-30T03:11:03.689Z,15.70
2022-10-30T03:12:05.404Z,15.80
2022-10-30T03:13:07.104Z,15.70
2022-10-30T03:14:08.856Z,15.80
2022-10-30T03:15:10.565Z,15.70
2022-10-30T03:16:23.816Z,15.70
2022-10-30T03:17:25.322Z,15.70
2022-10-30T03:18:27.191Z,15.60
2022-10-30T03:19:28.638Z,15.70
2022-10-30T03:20:30.078Z,15.70
2022-10-30T03:21:31.670Z,15.70
2022-10-30T03:22:33.065Z,15.70
2022-10-30T03:23:35.553Z,15.70
2022-10-30T03:24:38.215Z,15.70
2022-10-30T03:25:39.977Z,15.70
2022-10-30T03:26:41.619Z,15.60
2022-10-30T03:27:43.010Z,15.60
2022-10-30T03:28:45.057Z,15.60
2022-10-30T03:29:46.705Z,15.60
2022-10-30T03:30:48.704Z,15.60
2022-10-30T03:31:50.604Z,15.70
2022-10-30T03:32:56.104Z,15.70
2022-10-30T03:33:58.001Z,15.70
2022-10-30T03:34:59.733Z,15.60
2022-10-30T03:36:02.033Z,15.60
2022-10-30T03:37:04.068Z,15.60
2022-10-30T03:38:05.509Z,15.60
2022-10-30T03:39:06.918Z,15.60
2022-10-30T03:40:10.640Z,15.60
2022-10-30T03:41:13.064Z,15.60
2022-10-30T03:42:14.518Z,15.60
2022-10-30T03:43:16.441Z,15.60
2022-10-30T03:44:20.097Z,15.60
2022-10-30T03:45:24.711Z,15.70
2022-10-30T03:46:26.139Z,15.70
2022-10-30T03:47:31.181Z,15.70
2022-10-30T03:48:32.645Z,15.60
2022-10-30T03:49:34.350Z,15.70
2022-10-30T03:50:38.645Z,15.70
2022-10-30T03:51:40.036Z,15.70
2022-10-30T03:52:41.655Z,15.60
2022-10-30T03:53:43.095Z,15.60
2022-10-30T03:54:44.829Z,15.60
2022-10-30T03:55:48.810Z,15.60
2022-10-30T03:56:50.532Z,15.60
2022-10-30T03:57:53.037Z,15.60
2022-10-30T03:58:55.587Z,15.60
2022-10-30T03:59:58.075Z,15.50
2022-10-30T04:01:17.516Z,15.60
2022-10-30T04:02:22.995Z,15.50
2022-10-30T04:03:24.497Z,15.50
2022-10-30T04:04:25.926Z,15.50
2022-10-30T04:05:28.720Z,15.50
2022-10-30T04:06:31.631Z,15.50
2022-10-30T04:07:33.280Z,15.50
2022-10-30T04:08:34.741Z,15.50
2022-10-30T04:09:37.775Z,15.50
2022-10-30T04:10:46.594Z,15.50
2022-10-30T04:11:48.075Z,15.50
2022-10-30T04:12:49.792Z,15.60
2022-10-30T04:13:51.192Z,15.50
2022-10-30T04:14:53.930Z,15.60
2022-10-30T04:15:57.987Z,15.50
2022-10-30T04:17:00.777Z,15.60
2022-10-30T04:18:02.546Z,15.60
2022-10-30T04:19:04.812Z,15.60
2022-10-30T04:20:06.989Z,15.50
2022-10-30T04:21:08.433Z,15.60
2022-10-30T04:22:11.588Z,15.60
2022-10-30T04:23:17.250Z,15.60
2022-10-30T04:24:18.964Z,15.60
2022-10-30T04:25:23.898Z,15.50
2022-10-30T04:26:26.469Z,15.50
2022-10-30T04:27:28.151Z,15.40
2022-10-30T04:28:30.038Z,15.40
2022-10-30T04:29:32.119Z,15.50
2022-10-30T04:30:35.760Z,15.40
2022-10-30T04:31:38.171Z,15.50
2022-10-30T04:32:49.550Z,15.40
2022-10-30T04:33:53.007Z,15.40
2022-10-30T04:34:55.674Z,15.40
2022-10-30T04:35:57.250Z,15.40
2022-10-30T04:36:58.966Z,15.40
2022-10-30T04:38:02.784Z,15.40
2022-10-30T04:39:04.492Z,15.50
2022-10-30T04:40:07.870Z,15.50
2022-10-30T04:41:19.251Z,15.40
2022-10-30T04:42:29.304Z,15.40
2022-10-30T04:43:30.719Z,15.40
2022-10-30T04:44:32.784Z,15.40
2022-10-30T04:45:34.689Z,15.40
2022-10-30T04:46:37.974Z,15.40
2022-10-30T04:47:43.764Z,15.40
2022-10-30T04:48:45.905Z,15.40
2022-10-30T04:49:47.501Z,15.30
2022-10-30T04:50:49.031Z,15.30
2022-10-30T04:51:57.102Z,15.20
2022-10-30T04:53:03.683Z,15.20
2022-10-30T04:54:05.425Z,15.20
2022-10-30T04:55:08.218Z,15.30
2022-10-30T04:56:09.746Z,15.30
2022-10-30T04:57:12.472Z,15.30
2022-10-30T04:58:15.786Z,15.20
2022-10-30T04:59:21.500Z,15.20
2022-10-30T05:00:27.505Z,15.20
2022-10-30T05:01:33.428Z,15.20
2022-10-30T05:02:36.985Z,15.20
2022-10-30T05:03:38.752Z,15.20
2022-10-30T05:04:46.285Z,15.10
2022-10-30T05:06:01.633Z,15.10
2022-10-30T05:07:03.777Z,15.10
2022-10-30T05:08:05.390Z,15.10
2022-10-30T05:09:06.835Z,15.00
2022-10-30T05:10:14.861Z,15.00
2022-10-30T05:11:17.701Z,14.90
2022-10-30T05:12:19.543Z,14.90
2022-10-30T05:13:27.467Z,14.80
2022-10-30T05:14:30.680Z,14.80
2022-10-30T05:15:32.452Z,14.80
2022-10-30T05:16:34.501Z,14.70
2022-10-30T05:17:39.106Z,14.80
2022-10-30T05:18:40.674Z,14.80
2022-10-30T05:19:42.112Z,14.80
2022-10-30T05:20:43.541Z,14.80
2022-10-30T05:21:44.904Z,14.80
2022-10-30T05:22:59.093Z,14.80
2022-10-30T05:24:01.118Z,14.80
2022-10-30T05:25:07.521Z,14.80
2022-10-30T05:26:10.268Z,14.80
2022-10-30T05:27:12.029Z,14.80
2022-10-30T05:28:15.011Z,14.80
2022-10-30T05:29:21.226Z,14.70
2022-10-30T05:30:22.756Z,14.80
2022-10-30T05:31:24.222Z,14.80
2022-10-30T05:32:45.488Z,14.80
2022-10-30T05:33:46.918Z,14.80
2022-10-30T05:34:48.876Z,14.80
2022-10-30T05:35:54.709Z,14.80
2022-10-30T05:36:56.088Z,14.80
2022-10-30T05:37:57.790Z,14.70
2022-10-30T05:38:59.316Z,14.70
2022-10-30T05:40:07.715Z,14.70
2022-10-30T05:41:09.217Z,14.70
2022-10-30T05:42:13.757Z,14.70
2022-10-30T05:43:17.869Z,14.70
2022-10-30T05:44:34.228Z,14.70
2022-10-30T05:45:42.658Z,14.70
2022-10-30T05:46:44.240Z,14.70
2022-10-30T05:48:04.253Z,14.70
2022-10-30T05:49:09.999Z,14.70
2022-10-30T05:50:12.478Z,14.70
2022-10-30T05:51:21.111Z,14.70
2022-10-30T05:52:29.215Z,14.60
2022-10-30T05:53:32.860Z,14.60
2022-10-30T05:54:35.233Z,14.60
2022-10-30T05:55:45.191Z,14.60
2022-10-30T05:56:52.668Z,14.60
2022-10-30T05:58:02.505Z,14.60
2022-10-30T05:59:04.531Z,14.60
2022-10-30T06:00:07.084Z,14.60
2022-10-30T06:01:17.654Z,14.60
2022-10-30T06:02:24.126Z,14.60
2022-10-30T06:03:26.243Z,14.60
2022-10-30T06:04:28.147Z,14.60
2022-10-30T06:05:31.633Z,14.60
2022-10-30T06:06:33.885Z,14.60
2022-10-30T06:07:35.756Z,14.50
2022-10-30T06:08:37.445Z,14.50
2022-10-30T06:09:59.505Z,14.60
2022-10-30T06:11:33.702Z,14.50
2022-10-30T06:12:35.740Z,14.50
2022-10-30T06:13:49.513Z,14.40
2022-10-30T06:14:56.117Z,14.40
2022-10-30T06:15:57.690Z,14.40
2022-10-30T06:17:03.941Z,14.30
2022-10-30T06:18:08.366Z,14.30
2022-10-30T06:19:17.644Z,14.30
2022-10-30T06:20:23.932Z,14.30
2022-10-30T06:21:28.532Z,14.30
2022-10-30T06:23:03.698Z,14.30
2022-10-30T06:24:24.416Z,14.40
2022-10-30T06:25:51.753Z,14.50
2022-10-30T06:27:16.356Z,14.50
2022-10-30T06:28:18.895Z,14.50
2022-10-30T06:29:20.339Z,14.50
2022-10-30T06:30:22.339Z,14.50
2022-10-30T06:31:24.891Z,14.40
2022-10-30T06:32:26.382Z,14.40
2022-10-30T06:33:28.848Z,14.50
2022-10-30T06:34:30.566Z,14.50
2022-10-30T06:35:32.304Z,14.50
2022-10-30T06:36:33.795Z,14.60
2022-10-30T06:37:35.441Z,14.60
2022-10-30T06:38:43.532Z,14.60
2022-10-30T06:39:46.756Z,14.60
2022-10-30T06:41:03.135Z,14.60
2022-10-30T06:42:15.328Z,14.50
2022-10-30T06:43:28.375Z,14.60
2022-10-30T06:44:33.074Z,14.50
2022-10-30T06:45:34.796Z,14.60
2022-10-30T06:46:36.429Z,14.50
2022-10-30T06:47:38.436Z,14.60
2022-10-30T06:48:39.917Z,14.70
2022-10-30T06:49:41.477Z,14.70
2022-10-30T06:50:43.365Z,14.70
2022-10-30T06:51:45.081Z,14.70
2022-10-30T06:52:47.233Z,14.70
2022-10-30T06:53:48.880Z,14.80
2022-10-30T06:55:28.374Z,14.80
2022-10-30T06:56:56.216Z,14.80
2022-10-30T06:58:15.951Z,14.80
2022-10-30T06:59:37.634Z,14.80
2022-10-30T07:01:08.244Z,14.80
2022-10-30T07:02:28.899Z,14.80
2022-10-30T07:03:35.022Z,14.80
2022-10-30T07:04:36.484Z,14.80
2022-10-30T07:05:41.938Z,14.80
2022-10-30T07:06:47.006Z,14.80
2022-10-30T07:07:56.577Z,14.70
2022-10-30T07:08:59.012Z,14.70
2022-10-30T07:10:01.540Z,14.80
2022-10-30T07:11:23.812Z,14.80
2022-10-30T07:12:53.376Z,14.80
2022-10-30T07:14:15.529Z,14.80
2022-10-30T07:15:23.517Z,14.80
2022-10-30T07:16:40.501Z,14.80
2022-10-30T07:17:42.013Z,14.90
2022-10-30T07:18:51.882Z,14.90
2022-10-30T07:19:53.350Z,14.90
2022-10-30T07:20:58.469Z,14.90
2022-10-30T07:22:01.909Z,14.90
2022-10-30T07:23:04.441Z,14.90
2022-10-30T07:24:07.236Z,14.90
2022-10-30T07:25:13.790Z,14.90
2022-10-30T07:26:25.566Z,15.00
2022-10-30T07:27:29.182Z,15.00
2022-10-30T07:28:50.589Z,15.00
2022-10-30T07:29:54.724Z,15.00
2022-10-30T07:30:59.852Z,14.90
2022-10-30T07:32:24.028Z,15.00
2022-10-30T07:33:44.020Z,15.00
2022-10-30T07:35:12.181Z,15.00
2022-10-30T07:36:27.638Z,15.00
2022-10-30T07:37:56.185Z,15.00
2022-10-30T07:39:10.057Z,15.00
2022-10-30T07:40:30.241Z,15.00
2022-10-30T07:41:50.157Z,15.00
2022-10-30T07:43:13.357Z,15.00
2022-10-30T07:44:29.692Z,15.00
2022-10-30T07:46:06.446Z,14.90
2022-10-30T07:47:31.019Z,15.00
2022-10-30T07:48:56.848Z,15.10
2022-10-30T07:50:18.698Z,15.10
2022-10-30T07:51:20.318Z,15.10
2022-10-30T07:52:21.755Z,15.20
2022-10-30T07:53:23.990Z,15.20
2022-10-30T07:54:25.960Z,15.30
2022-10-30T07:55:28.106Z,15.30
2022-10-30T07:56:47.717Z,15.40
2022-10-30T07:58:07.933Z,15.40
2022-10-30T07:59:44.638Z,15.50
2022-10-30T08:00:46.287Z,15.50
2022-10-30T08:01:58.183Z,15.50
2022-10-30T08:03:07.168Z,15.50
2022-10-30T08:04:25.847Z,15.40
2022-10-30T08:05:32.978Z,15.40
2022-10-30T08:06:40.669Z,15.40
2022-10-30T08:07:42.171Z,15.40
2022-10-30T08:08:43.787Z,15.40
2022-10-30T08:09:53.941Z,15.50
2022-10-30T08:10:55.651Z,15.50
2022-10-30T08:11:57.139Z,15.60
2022-10-30T08:12:58.718Z,15.70
2022-10-30T08:14:00.835Z,15.70
2022-10-30T08:15:02.297Z,15.70
2022-10-30T08:16:03.889Z,15.80
2022-10-30T08:17:07.583Z,15.80
2022-10-30T08:18:09.265Z,15.90
2022-10-30T08:19:13.372Z,15.90
2022-10-30T08:20:19.830Z,15.80
2022-10-30T08:21:22.975Z,15.90
2022-10-30T08:23:02.125Z,15.90
2022-10-30T08:24:04.064Z,15.90
2022-10-30T08:25:08.166Z,15.90
2022-10-30T08:26:10.063Z,15.80
2022-10-30T08:27:11.647Z,15.80
2022-10-30T08:28:14.469Z,15.80
2022-10-30T08:29:18.320Z,15.70
2022-10-30T08:30:23.163Z,15.70
2022-10-30T08:31:28.104Z,15.70
2022-10-30T08:32:38.549Z,15.70
2022-10-30T08:34:00.658Z,15.80
2022-10-30T08:35:20.479Z,15.80
2022-10-30T08:36:22.047Z,15.80
2022-10-30T08:37:23.463Z,15.90
2022-10-30T08:38:26.825Z,15.90
2022-10-30T08:39:46.236Z,15.90
2022-10-30T08:41:11.226Z,16.00
2022-10-30T08:42:19.179Z,16.10
2022-10-30T08:43:21.013Z,16.10
2022-10-30T08:44:22.568Z,16.20
2022-10-30T08:45:42.975Z,16.30
2022-10-30T08:46:47.676Z,16.30
2022-10-30T08:47:59.719Z,16.30
2022-10-30T08:49:03.158Z,16.30
2022-10-30T08:50:05.418Z,16.30
2022-10-30T08:51:07.289Z,16.40
2022-10-30T08:52:17.582Z,16.40
2022-10-30T08:53:23.548Z,16.40
2022-10-30T08:54:26.691Z,16.40
2022-10-30T08:55:30.264Z,16.40
2022-10-30T08:56:34.085Z,16.40
2022-10-30T08:57:43.106Z,16.50
2022-10-30T08:58:44.565Z,16.50
2022-10-30T08:59:47.770Z,16.60
2022-10-30T09:01:09.587Z,16.70
2022-10-30T09:02:30.375Z,16.70
2022-10-30T09:03:50.600Z,16.70
2022-10-30T09:05:14.764Z,16.70
2022-10-30T09:06:54.467Z,16.60
2022-10-30T09:08:14.421Z,16.60
2022-10-30T09:09:39.074Z,16.60
2022-10-30T09:10:41.636Z,16.60
2022-10-30T09:11:44.403Z,16.60
2022-10-30T09:12:45.972Z,16.60
2022-10-30T09:13:47.853Z,16.60
2022-10-30T09:14:49.237Z,16.70
2022-10-30T09:15:51.335Z,16.70
2022-10-30T09:16:54.609Z,16.70
2022-10-30T09:18:03.471Z,16.80
2022-10-30T09:19:05.110Z,16.70
2022-10-30T09:20:06.817Z,16.80
2022-10-30T09:21:10.916Z,16.90
2022-10-30T09:22:18.050Z,16.90
2022-10-30T09:23:20.070Z,16.90
2022-10-30T09:24:25.550Z,16.90
2022-10-30T09:25:28.388Z,17.00
2022-10-30T09:26:47.197Z,17.00
2022-10-30T09:27:56.034Z,17.00
2022-10-30T09:29:00.316Z,17.10
2022-10-30T09:30:19.824Z,17.10
2022-10-30T09:31:26.167Z,17.10
2022-10-30T09:32:27.895Z,17.10
2022-10-30T09:33:44.759Z,17.20
2022-10-30T09:35:14.708Z,17.20
2022-10-30T09:36:21.307Z,17.20
2022-10-30T09:37:24.325Z,17.20
2022-10-30T09:38:29.771Z,17.20
2022-10-30T09:39:32.576Z,17.20
2022-10-30T09:40:46.380Z,17.30
2022-10-30T09:42:09.278Z,17.30
2022-10-30T09:43:24.625Z,17.30
2022-10-30T09:44:35.909Z,17.40
2022-10-30T09:46:04.842Z,17.40
2022-10-30T09:47:12.573Z,17.40
2022-10-30T09:48:25.780Z,17.50
2022-10-30T09:50:14.308Z,17.50
2022-10-30T09:51:51.132Z,17.60
2022-10-30T09:53:17.728Z,17.70
2022-10-30T09:54:38.426Z,17.80
2022-10-30T09:56:18.180Z,17.80
2022-10-30T09:57:25.511Z,17.90
2022-10-30T09:58:49.220Z,17.90
2022-10-30T10:00:13.743Z,18.00
2022-10-30T10:01:34.637Z,18.10
2022-10-30T10:03:16.314Z,18.20
2022-10-30T10:04:44.716Z,18.20
2022-10-30T10:06:18.587Z,18.30
2022-10-30T10:07:50.385Z,18.30
2022-10-30T10:09:26.529Z,18.50
2022-10-30T10:10:43.952Z,18.60
2022-10-30T10:12:13.764Z,18.60
2022-10-30T10:13:53.165Z,18.70
2022-10-30T10:14:56.383Z,18.80
2022-10-30T10:16:16.595Z,18.90
2022-10-30T10:17:28.578Z,19.00
2022-10-30T10:18:35.855Z,19.00
2022-10-30T10:20:01.672Z,19.10
2022-10-30T10:21:12.678Z,19.10
2022-10-30T10:22:21.346Z,19.20
2022-10-30T10:23:46.898Z,19.20
2022-10-30T10:24:48.995Z,19.20
2022-10-30T10:25:54.637Z,19.20
2022-10-30T10:27:30.310Z,19.10
2022-10-30T10:29:00.883Z,19.10
2022-10-30T10:30:08.720Z,19.20
2022-10-30T10:31:21.434Z,19.20
2022-10-30T10:32:29.000Z,19.30
2022-10-30T10:33:55.177Z,19.30
2022-10-30T10:35:36.525Z,19.30
2022-10-30T10:37:08.696Z,19.40
2022-10-30T10:38:22.265Z,19.30
2022-10-30T10:39:53.109Z,19.30
2022-10-30T10:41:02.968Z,19.20
2022-10-30T10:42:12.683Z,19.20
2022-10-30T10:43:46.486Z,19.30
2022-10-30T10:45:24.494Z,19.30
2022-10-30T10:46:52.996Z,19.50
2022-10-30T10:48:06.181Z,19.40
2022-10-30T10:49:26.629Z,19.50
2022-10-30T10:50:32.443Z,19.50
2022-10-30T10:51:44.004Z,19.60
2022-10-30T10:53:01.573Z,19.70
2022-10-30T10:54:27.387Z,19.70
2022-10-30T10:55:33.674Z,19.80
2022-10-30T10:56:40.025Z,19.80
2022-10-30T10:57:43.478Z,19.90
2022-10-30T10:59:20.065Z,19.90
2022-10-30T11:00:30.527Z,20.00
2022-10-30T11:01:39.099Z,20.20
2022-10-30T11:02:42.518Z,20.20
2022-10-30T11:04:11.548Z,20.30
2022-10-30T11:05:33.790Z,20.40
2022-10-30T11:06:46.528Z,20.50
2022-10-30T11:07:49.935Z,20.50
2022-10-30T11:08:54.369Z,20.60
2022-10-30T11:09:57.506Z,20.70
2022-10-30T11:11:04.479Z,20.80
2022-10-30T11:12:06.629Z,20.80
2022-10-30T11:13:14.823Z,20.90
2022-10-30T11:14:23.675Z,20.80
2022-10-30T11:15:47.889Z,20.80
2022-10-30T11:17:15.377Z,20.90
2022-10-30T11:18:17.232Z,20.90
2022-10-30T11:19:19.014Z,21.00
2022-10-30T11:20:31.936Z,21.10
2022-10-30T11:21:38.684Z,21.20
2022-10-30T11:22:44.215Z,21.30
2022-10-30T11:23:48.557Z,21.40
2022-10-30T11:24:49.910Z,21.50
2022-10-30T11:25:51.396Z,21.60
2022-10-30T11:27:15.454Z,21.60
2022-10-30T11:28:35.738Z,21.70
2022-10-30T11:29:37.251Z,21.70
2022-10-30T11:30:38.791Z,21.70
2022-10-30T11:31:42.764Z,21.50
2022-10-30T11:33:51.613Z,21.50
2022-10-30T11:35:08.269Z,21.40
2022-10-30T11:36:15.520Z,21.50
2022-10-30T11:37:32.769Z,21.50
2022-10-30T11:38:34.260Z,21.60
2022-10-30T11:39:36.227Z,21.60
2022-10-30T11:40:38.054Z,21.60
2022-10-30T11:41:39.628Z,21.70
2022-10-30T11:43:01.484Z,21.70
2022-10-30T11:44:04.279Z,21.80
2022-10-30T11:45:13.262Z,21.80
2022-10-30T11:46:22.298Z,21.80
2022-10-30T11:48:44.936Z,21.50
2022-10-30T11:49:53.799Z,21.50
2022-10-30T11:51:00.070Z,21.60
2022-10-30T11:52:02.523Z,21.60
2022-10-30T11:53:42.855Z,21.70
2022-10-30T11:54:49.006Z,21.60
2022-10-30T11:55:50.921Z,21.60
2022-10-30T11:56:54.354Z,21.60
2022-10-30T11:57:58.534Z,21.60
2022-10-30T11:59:03.630Z,21.60
2022-10-30T12:00:17.119Z,21.70
2022-10-30T12:01:30.464Z,21.60
2022-10-30T12:02:41.428Z,21.60
2022-10-30T12:03:43.409Z,21.40
2022-10-30T12:04:45.076Z,21.40
2022-10-30T12:05:49.431Z,21.40
2022-10-30T12:07:08.117Z,21.40
2022-10-30T12:08:09.513Z,21.50
2022-10-30T12:09:22.210Z,21.50
2022-10-30T12:10:25.459Z,21.50
2022-10-30T12:11:35.169Z,21.50
2022-10-30T12:12:40.084Z,21.50
2022-10-30T12:13:42.177Z,21.60
2022-10-30T12:14:43.827Z,21.60
2022-10-30T12:15:48.862Z,21.60
2022-10-30T12:16:57.348Z,21.50
2022-10-30T12:18:01.907Z,21.60
2022-10-30T12:19:08.711Z,21.70
2022-10-30T12:20:14.926Z,21.60
2022-10-30T12:21:19.714Z,21.70
2022-10-30T12:22:31.321Z,21.80
2022-10-30T12:23:33.766Z,21.80
2022-10-30T12:24:39.552Z,21.90
2022-10-30T12:25:47.618Z,21.90
2022-10-30T12:26:53.232Z,22.00
2022-10-30T12:28:06.437Z,22.10
2022-10-30T12:29:15.860Z,22.10
2022-10-30T12:30:22.120Z,22.20
2022-10-30T12:31:32.174Z,22.30
2022-10-30T12:32:42.181Z,22.30
2022-10-30T12:33:52.272Z,22.40
2022-10-30T12:35:02.645Z,22.40
2022-10-30T12:36:10.184Z,22.50
2022-10-30T12:37:28.432Z,22.50
2022-10-30T12:38:34.443Z,22.60
2022-10-30T12:40:06.924Z,22.70
2022-10-30T12:41:25.831Z,22.70
2022-10-30T12:42:28.766Z,22.70
2022-10-30T12:43:34.781Z,22.70
2022-10-30T12:45:15.031Z,22.70
2022-10-30T12:46:35.868Z,22.70
2022-10-30T12:47:50.847Z,22.70
2022-10-30T12:49:03.167Z,22.70
2022-10-30T12:50:25.145Z,22.80
2022-10-30T12:51:54.318Z,22.90
2022-10-30T12:53:10.682Z,22.90
2022-10-30T12:54:18.407Z,22.90
2022-10-30T12:55:43.366Z,22.90
2022-10-30T12:56:47.842Z,22.90
2022-10-30T12:58:18.797Z,22.90
2022-10-30T12:59:44.293Z,22.90
2022-10-30T13:00:54.624Z,22.90
2022-10-30T13:02:15.655Z,22.90
2022-10-30T13:03:36.170Z,22.90
2022-10-30T13:04:42.410Z,22.90
2022-10-30T13:05:59.948Z,22.90
2022-10-30T13:07:23.665Z,22.80
2022-10-30T13:08:33.004Z,22.80
2022-10-30T13:10:02.032Z,22.80
2022-10-30T13:11:21.795Z,22.80
2022-10-30T13:12:31.330Z,22.80
2022-10-30T13:13:37.917Z,22.70
2022-10-30T13:14:41.950Z,22.70
2022-10-30T13:15:52.700Z,22.70
2022-10-30T13:16:54.131Z,22.70
2022-10-30T13:18:00.823Z,22.80
2022-10-30T13:19:03.750Z,22.80
2022-10-30T13:20:15.569Z,22.80
2022-10-30T13:21:25.778Z,22.80
2022-10-30T13:22:33.353Z,22.90
2022-10-30T13:23:42.723Z,22.90
2022-10-30T13:25:15.178Z,22.90
2022-10-30T13:26:27.164Z,22.90
2022-10-30T13:27:49.498Z,22.80
2022-10-30T13:28:58.328Z,22.90
2022-10-30T13:30:25.506Z,22.80
2022-10-30T13:31:58.465Z,22.80
2022-10-30T13:33:22.949Z,22.80
2022-10-30T13:34:43.144Z,22.80
2022-10-30T13:36:01.430Z,22.70
2022-10-30T13:37:33.627Z,22.70
2022-10-30T13:38:44.413Z,22.60
2022-10-30T13:39:57.758Z,22.60
2022-10-30T13:41:07.937Z,22.60
2022-10-30T13:42:50.786Z,22.50
2022-10-30T13:44:22.927Z,22.50
2022-10-30T13:45:44.397Z,22.40
2022-10-30T13:47:21.241Z,22.40
2022-10-30T13:48:39.714Z,22.30
2022-10-30T13:50:07.146Z,22.30
2022-10-30T13:51:29.835Z,22.30
2022-10-30T13:52:34.275Z,22.20
2022-10-30T13:53:39.835Z,22.20
2022-10-30T13:55:03.148Z,22.10
2022-10-30T13:56:04.849Z,22.10
2022-10-30T13:57:33.136Z,22.00
2022-10-30T13:58:40.589Z,21.90
2022-10-30T13:59:45.081Z,21.90
2022-10-30T14:00:53.059Z,21.90
2022-10-30T14:02:00.716Z,21.90
2022-10-30T14:03:33.925Z,21.80
2022-10-30T14:04:47.084Z,21.70
2022-10-30T14:06:12.405Z,21.60
2022-10-30T14:07:38.957Z,21.50
2022-10-30T14:08:50.671Z,21.50
2022-10-30T14:10:08.633Z,21.40
2022-10-30T14:11:13.203Z,21.40
2022-10-30T14:12:48.485Z,21.40
2022-10-30T14:13:57.411Z,21.30
2022-10-30T14:15:05.142Z,21.20
2022-10-30T14:16:07.716Z,21.10
2022-10-30T14:17:17.565Z,20.90
2022-10-30T14:18:25.546Z,20.80
2022-10-30T14:19:27.675Z,20.90
2022-10-30T14:20:29.391Z,20.80
2022-10-30T14:21:34.427Z,20.70
2022-10-30T14:22:37.633Z,20.60
2022-10-30T14:23:39.110Z,20.50
2022-10-30T14:24:45.062Z,20.40
2022-10-30T14:26:10.563Z,20.40
2022-10-30T14:27:18.009Z,20.40
2022-10-30T14:28:21.217Z,20.40
2022-10-30T14:29:35.092Z,20.40
2022-10-30T14:30:36.749Z,20.30
2022-10-30T14:31:38.240Z,20.20
2022-10-30T14:32:41.461Z,20.10
2022-10-30T14:33:46.646Z,20.10
2022-10-30T14:34:50.847Z,20.10
2022-10-30T14:36:24.558Z,20.00
2022-10-30T14:37:29.796Z,20.00
2022-10-30T14:38:35.270Z,19.90
2022-10-30T14:39:40.535Z,19.80
2022-10-30T14:41:24.092Z,19.80
2022-10-30T14:42:51.309Z,19.70
2022-10-30T14:44:20.102Z,19.70
2022-10-30T14:45:29.106Z,19.70
2022-10-30T14:46:42.056Z,19.60
2022-10-30T14:48:08.361Z,19.60
2022-10-30T14:49:38.004Z,19.50
2022-10-30T14:50:57.945Z,19.60
2022-10-30T14:52:21.989Z,19.60
2022-10-30T14:53:42.572Z,19.60